createdAt,value
2018-07-16T00:00:13.458Z,20.58
2018-07-16T00:02:41.353Z,20.51
2018-07-16T00:05:09.251Z,20.37
2018-07-16T00:07:37.111Z,20.44
2018-07-16T00:10:05.070Z,20.44
2018-07-16T00:12:32.812Z,20.39
2018-07-16T00:15:00.582Z,20.31
2018-07-16T00:17:28.403Z,20.31
2018-07-16T00:19:56.227Z,20.35
2018-07-16T00:22:23.971Z,20.34
2018-07-16T00:24:51.784Z,20.40
2018-07-16T00:27:19.639Z,20.36
2018-07-16T00:29:47.399Z,20.27
2018-07-16T00:32:15.130Z,20.26
2018-07-16T00:34:42.956Z,20.25
2018-07-16T00:37:10.735Z,20.25
2018-07-16T00:39:38.550Z,20.31
2018-07-16T00:42:06.345Z,20.32
2018-07-16T00:44:34.143Z,20.27
2018-07-16T00:47:01.940Z,20.27
2018-07-16T00:49:29.747Z,20.38
2018-07-16T00:51:57.583Z,20.35
2018-07-16T00:54:25.383Z,20.36
2018-07-16T00:56:53.215Z,20.32
2018-07-16T00:59:21.121Z,20.31
2018-07-16T01:01:48.967Z,20.29
2018-07-16T01:04:16.720Z,20.29
2018-07-16T01:06:44.463Z,20.29
2018-07-16T01:09:12.311Z,20.36
2018-07-16T01:11:40.149Z,20.34
2018-07-16T01:14:07.991Z,20.35
2018-07-16T01:16:35.803Z,20.28
2018-07-16T01:19:03.648Z,20.20
2018-07-16T01:21:31.423Z,20.07
2018-07-16T01:23:59.228Z,19.96
2018-07-16T01:26:26.994Z,19.78
2018-07-16T01:28:54.827Z,19.74
2018-07-16T01:31:22.609Z,19.56
2018-07-16T01:33:50.373Z,19.65
2018-07-16T01:36:18.215Z,19.64
2018-07-16T01:38:46.017Z,19.52
2018-07-16T01:41:13.856Z,19.48
2018-07-16T01:43:41.675Z,19.44
2018-07-16T01:46:09.489Z,19.48
2018-07-16T01:48:37.288Z,19.33
2018-07-16T01:51:05.023Z,19.31
2018-07-16T01:53:32.819Z,19.26
2018-07-16T01:56:00.752Z,19.19
2018-07-16T01:58:28.526Z,19.11
2018-07-16T02:00:59.650Z,19.11
2018-07-16T02:03:29.483Z,19.09
2018-07-16T02:05:57.300Z,19.09
2018-07-16T02:08:25.743Z,19.06
2018-07-16T02:10:53.964Z,19.03
2018-07-16T02:13:22.018Z,18.98
2018-07-16T02:15:50.093Z,19.01
2018-07-16T02:18:17.971Z,19.01
2018-07-16T02:20:46.423Z,18.92
2018-07-16T02:23:14.270Z,18.88
2018-07-16T02:25:42.013Z,18.94
2018-07-16T02:28:10.812Z,18.90
2018-07-16T02:30:39.337Z,18.99
2018-07-16T02:33:07.711Z,18.98
2018-07-16T02:35:35.476Z,18.94
2018-07-16T02:38:03.355Z,18.96
2018-07-16T02:40:31.243Z,18.85
2018-07-16T02:42:59.032Z,18.90
2018-07-16T02:45:27.099Z,18.85
2018-07-16T02:47:55.124Z,18.79
2018-07-16T02:50:22.929Z,18.94
2018-07-16T02:52:50.740Z,18.85
2018-07-16T02:55:18.561Z,18.86
2018-07-16T02:57:46.396Z,18.83
2018-07-16T03:00:14.213Z,18.87
2018-07-16T03:02:42.039Z,18.91
2018-07-16T03:05:15.528Z,18.89
2018-07-16T03:07:44.208Z,18.83
2018-07-16T03:10:12.307Z,18.81
2018-07-16T03:12:40.251Z,18.81
2018-07-16T03:15:08.047Z,18.84
2018-07-16T03:17:35.813Z,18.86
2018-07-16T03:20:03.941Z,18.78
2018-07-16T03:22:31.735Z,18.73
2018-07-16T03:24:59.519Z,18.67
2018-07-16T03:27:27.292Z,18.69
2018-07-16T03:29:55.255Z,18.75
2018-07-16T03:32:23.300Z,18.72
2018-07-16T03:34:51.095Z,18.78
2018-07-16T03:37:18.879Z,18.68
2018-07-16T03:39:46.690Z,18.73
2018-07-16T03:42:14.519Z,18.66
2018-07-16T03:44:42.290Z,18.61
2018-07-16T03:47:10.079Z,18.59
2018-07-16T03:49:37.891Z,18.50
2018-07-16T03:52:05.788Z,18.70
2018-07-16T03:54:33.715Z,18.57
2018-07-16T03:57:01.553Z,18.54
2018-07-16T03:59:29.419Z,18.55
2018-07-16T04:01:57.201Z,18.56
2018-07-16T04:04:25.024Z,18.53
2018-07-16T04:06:52.811Z,18.51
2018-07-16T04:09:20.627Z,18.56
2018-07-16T04:11:48.459Z,18.51
2018-07-16T04:14:16.223Z,18.50
2018-07-16T04:16:44.033Z,18.55
2018-07-16T04:19:11.967Z,18.51
2018-07-16T04:21:39.760Z,18.46
2018-07-16T04:24:07.665Z,18.48
2018-07-16T04:26:35.472Z,18.48
2018-07-16T04:29:03.249Z,18.45
2018-07-16T04:31:31.068Z,18.50
2018-07-16T04:33:58.878Z,18.57
2018-07-16T04:36:26.675Z,18.55
2018-07-16T04:38:54.459Z,18.63
2018-07-16T04:41:22.248Z,18.73
2018-07-16T04:43:50.115Z,18.76
2018-07-16T04:46:17.964Z,18.83
2018-07-16T04:48:45.747Z,18.97
2018-07-16T04:51:13.704Z,19.02
2018-07-16T04:53:41.527Z,19.09
2018-07-16T04:56:09.337Z,19.18
2018-07-16T04:58:37.167Z,19.27
2018-07-16T05:01:05.275Z,19.47
2018-07-16T05:03:33.087Z,19.56
2018-07-16T05:06:00.843Z,19.76
2018-07-16T05:08:28.670Z,19.99
2018-07-16T05:10:56.573Z,20.13
2018-07-16T05:13:24.369Z,20.21
2018-07-16T05:15:52.200Z,20.23
2018-07-16T05:18:20.073Z,20.24
2018-07-16T05:20:47.867Z,20.28
2018-07-16T05:23:15.739Z,20.31
2018-07-16T05:25:43.515Z,20.26
2018-07-16T05:28:11.282Z,20.27
2018-07-16T05:30:39.111Z,20.29
2018-07-16T05:33:06.932Z,20.31
2018-07-16T05:35:34.790Z,20.49
2018-07-16T05:38:02.595Z,20.67
2018-07-16T05:40:30.383Z,20.89
2018-07-16T05:42:58.251Z,20.99
2018-07-16T05:45:26.092Z,21.13
2018-07-16T05:47:53.887Z,21.36
2018-07-16T05:50:21.819Z,21.48
2018-07-16T05:52:49.648Z,21.58
2018-07-16T05:55:17.535Z,21.73
2018-07-16T05:57:45.323Z,21.80
2018-07-16T06:00:13.136Z,21.89
2018-07-16T06:02:40.915Z,22.01
2018-07-16T06:05:08.748Z,22.12
2018-07-16T06:07:36.570Z,22.27
2018-07-16T06:10:04.415Z,22.32
2018-07-16T06:12:32.232Z,22.37
2018-07-16T06:15:00.007Z,22.44
2018-07-16T06:17:27.771Z,22.52
2018-07-16T06:19:55.620Z,22.58
2018-07-16T06:22:23.429Z,22.64
2018-07-16T06:24:51.268Z,22.72
2018-07-16T06:27:19.095Z,22.85
2018-07-16T06:29:46.927Z,22.87
2018-07-16T06:32:14.725Z,22.90
2018-07-16T06:34:42.527Z,23.05
2018-07-16T06:37:10.341Z,23.35
2018-07-16T06:39:38.236Z,23.61
2018-07-16T06:42:06.211Z,23.78
2018-07-16T06:44:33.971Z,23.92
2018-07-16T06:47:01.828Z,23.94
2018-07-16T06:49:29.635Z,23.97
2018-07-16T06:51:57.452Z,24.02
2018-07-16T06:54:25.323Z,24.03
2018-07-16T06:56:53.107Z,23.94
2018-07-16T06:59:20.927Z,23.92
2018-07-16T07:01:48.747Z,23.87
2018-07-16T07:04:16.539Z,23.85
2018-07-16T07:06:44.396Z,23.69
2018-07-16T07:09:12.223Z,23.62
2018-07-16T07:11:40.000Z,23.46
2018-07-16T07:14:07.835Z,23.50
2018-07-16T07:16:35.692Z,23.51
2018-07-16T07:19:03.556Z,23.52
2018-07-16T07:21:31.303Z,23.39
2018-07-16T07:23:59.163Z,23.34
2018-07-16T07:26:27.050Z,23.45
2018-07-16T07:28:54.790Z,23.32
2018-07-16T07:31:22.623Z,23.41
2018-07-16T07:33:50.428Z,23.36
2018-07-16T07:36:18.244Z,23.22
2018-07-16T07:38:46.033Z,22.84
2018-07-16T07:41:13.891Z,22.58
2018-07-16T07:43:41.720Z,22.50
2018-07-16T07:46:09.588Z,22.38
2018-07-16T07:48:37.389Z,22.37
2018-07-16T07:51:05.304Z,22.45
2018-07-16T07:53:33.115Z,22.56
2018-07-16T07:56:01.148Z,22.63
2018-07-16T07:58:28.979Z,22.50
2018-07-16T08:00:56.995Z,22.43
2018-07-16T08:03:24.853Z,22.34
2018-07-16T08:05:58.290Z,22.33
2018-07-16T08:08:26.055Z,22.38
2018-07-16T08:10:53.917Z,22.34
2018-07-16T08:13:21.744Z,22.36
2018-07-16T08:15:49.743Z,22.29
2018-07-16T08:18:17.556Z,22.21
2018-07-16T08:20:45.343Z,22.04
2018-07-16T08:23:13.159Z,22.02
2018-07-16T08:25:40.987Z,21.95
2018-07-16T08:28:10.821Z,21.92
2018-07-16T08:30:38.647Z,21.94
2018-07-16T08:33:08.912Z,21.99
2018-07-16T08:35:39.382Z,21.95
2018-07-16T08:38:08.412Z,21.96
2018-07-16T08:40:36.239Z,22.02
2018-07-16T08:43:04.124Z,21.93
2018-07-16T08:45:34.346Z,21.90
2018-07-16T08:48:03.774Z,21.87
2018-07-16T08:50:32.197Z,21.97
2018-07-16T08:53:00.126Z,21.95
2018-07-16T08:55:27.974Z,22.03
2018-07-16T08:57:55.785Z,22.09
2018-07-16T09:00:23.723Z,22.07
2018-07-16T09:02:51.510Z,22.10
2018-07-16T09:05:19.291Z,22.10
2018-07-16T09:07:47.091Z,22.19
2018-07-16T09:10:15.032Z,22.22
2018-07-16T09:12:42.824Z,22.27
2018-07-16T09:15:10.648Z,22.26
2018-07-16T09:17:38.494Z,22.23
2018-07-16T09:20:06.384Z,22.33
2018-07-16T09:22:34.196Z,22.45
2018-07-16T09:25:02.116Z,22.52
2018-07-16T09:27:29.997Z,22.46
2018-07-16T09:29:57.800Z,22.23
2018-07-16T09:32:25.624Z,22.24
2018-07-16T09:34:53.460Z,22.34
2018-07-16T09:37:21.291Z,22.41
2018-07-16T09:39:49.075Z,22.43
2018-07-16T09:42:16.955Z,22.50
2018-07-16T09:44:44.756Z,22.63
2018-07-16T09:47:12.597Z,22.71
2018-07-16T09:49:44.938Z,22.79
2018-07-16T09:52:13.052Z,22.96
2018-07-16T09:54:40.895Z,23.23
2018-07-16T09:57:08.680Z,23.43
2018-07-16T09:59:36.503Z,23.56
2018-07-16T10:02:10.119Z,23.48
2018-07-16T10:04:37.961Z,23.60
2018-07-16T10:07:05.909Z,24.02
2018-07-16T10:09:33.842Z,24.53
2018-07-16T10:12:02.177Z,25.28
2018-07-16T10:14:30.029Z,26.05
2018-07-16T10:16:57.887Z,26.58
2018-07-16T10:19:25.694Z,26.82
2018-07-16T10:21:53.535Z,27.04
2018-07-16T10:24:21.359Z,27.10
2018-07-16T10:26:49.164Z,27.41
2018-07-16T10:29:16.936Z,27.76
2018-07-16T10:31:44.730Z,28.01
2018-07-16T10:34:12.461Z,28.50
2018-07-16T10:36:40.271Z,28.83
2018-07-16T10:39:08.105Z,29.12
2018-07-16T10:41:36.207Z,29.33
2018-07-16T10:44:04.135Z,29.50
2018-07-16T10:46:31.966Z,30.26
2018-07-16T10:48:59.771Z,31.02
2018-07-16T10:51:29.710Z,31.77
2018-07-16T10:53:57.542Z,32.48
2018-07-16T10:56:37.059Z,33.12
2018-07-16T10:59:05.256Z,33.61
2018-07-16T11:01:33.128Z,34.59
2018-07-16T11:04:01.020Z,35.05
2018-07-16T11:06:28.911Z,35.50
2018-07-16T11:08:56.800Z,36.01
2018-07-16T11:11:24.561Z,36.21
2018-07-16T11:13:52.408Z,36.51
2018-07-16T11:16:20.185Z,36.95
2018-07-16T11:18:47.959Z,37.23
2018-07-16T11:21:15.825Z,37.58
2018-07-16T11:23:44.846Z,38.09
2018-07-16T11:26:12.864Z,38.03
2018-07-16T11:28:41.175Z,38.50
2018-07-16T11:31:09.086Z,38.60
2018-07-16T11:33:36.935Z,39.23
2018-07-16T11:36:05.203Z,39.04
2018-07-16T11:38:33.094Z,38.61
2018-07-16T11:41:00.938Z,38.59
2018-07-16T11:43:29.225Z,38.71
2018-07-16T11:45:57.284Z,38.96
2018-07-16T11:48:25.091Z,39.31
2018-07-16T11:50:52.910Z,39.54
2018-07-16T11:53:20.683Z,39.53
2018-07-16T11:55:48.438Z,39.82
2018-07-16T11:58:16.199Z,39.60
2018-07-16T12:00:44.019Z,39.46
2018-07-16T12:03:11.752Z,39.53
2018-07-16T12:05:39.553Z,39.11
2018-07-16T12:08:07.503Z,39.39
2018-07-16T12:10:35.628Z,39.10
2018-07-16T12:13:03.456Z,39.37
2018-07-16T12:15:37.652Z,39.46
2018-07-16T12:18:05.460Z,40.20
2018-07-16T12:20:35.206Z,40.01
2018-07-16T12:23:03.412Z,40.06
2018-07-16T12:25:31.644Z,40.26
2018-07-16T12:27:59.555Z,39.93
2018-07-16T12:30:27.347Z,39.91
2018-07-16T12:32:55.579Z,40.01
2018-07-16T12:35:23.279Z,39.68
2018-07-16T12:37:54.183Z,40.18
2018-07-16T12:40:26.261Z,40.03
2018-07-16T12:42:55.827Z,40.00
2018-07-16T12:45:26.928Z,40.05
2018-07-16T12:47:54.691Z,40.06
2018-07-16T12:50:22.527Z,40.20
2018-07-16T12:52:50.604Z,40.28
2018-07-16T12:55:18.440Z,40.00
2018-07-16T12:57:46.280Z,40.06
2018-07-16T13:00:14.059Z,40.08
2018-07-16T13:02:41.887Z,40.08
2018-07-16T13:05:10.594Z,39.91
2018-07-16T13:07:38.435Z,39.70
2018-07-16T13:10:06.343Z,39.59
2018-07-16T13:12:34.203Z,39.55
2018-07-16T13:15:02.020Z,39.22
2018-07-16T13:17:29.783Z,38.83
2018-07-16T13:19:57.587Z,38.58
2018-07-16T13:22:25.399Z,38.48
2018-07-16T13:24:53.201Z,38.06
2018-07-16T13:27:21.024Z,37.97
2018-07-16T13:29:48.932Z,37.78
2018-07-16T13:32:16.640Z,37.42
2018-07-16T13:34:44.463Z,37.41
2018-07-16T13:37:12.362Z,37.20
2018-07-16T13:39:40.119Z,36.93
2018-07-16T13:42:07.899Z,36.83
2018-07-16T13:44:35.714Z,36.58
2018-07-16T13:47:03.511Z,36.10
2018-07-16T13:49:31.364Z,35.91
2018-07-16T13:51:59.264Z,35.89
2018-07-16T13:54:27.085Z,35.78
2018-07-16T13:56:56.499Z,35.60
2018-07-16T13:59:25.412Z,35.41
2018-07-16T14:01:53.160Z,35.32
2018-07-16T14:04:22.556Z,35.01
2018-07-16T14:06:50.445Z,35.04
2018-07-16T14:09:18.603Z,34.94
2018-07-16T14:11:46.367Z,34.81
2018-07-16T14:14:14.134Z,34.79
2018-07-16T14:16:41.920Z,34.54
2018-07-16T14:19:09.753Z,34.46
2018-07-16T14:21:38.256Z,34.24
2018-07-16T14:24:06.163Z,34.12
2018-07-16T14:26:34.006Z,33.96
2018-07-16T14:29:01.859Z,33.67
2018-07-16T14:31:29.607Z,33.62
2018-07-16T14:33:58.144Z,33.45
2018-07-16T14:36:26.735Z,33.38
2018-07-16T14:38:54.548Z,33.31
2018-07-16T14:41:22.507Z,33.26
2018-07-16T14:43:52.447Z,33.19
2018-07-16T14:46:20.264Z,32.92
2018-07-16T14:48:48.032Z,32.63
2018-07-16T14:51:15.960Z,32.67
2018-07-16T14:53:43.727Z,32.48
2018-07-16T14:56:11.463Z,32.36
2018-07-16T14:58:39.701Z,32.10
2018-07-16T15:01:07.523Z,32.02
2018-07-16T15:03:37.310Z,31.96
2018-07-16T15:06:05.263Z,31.96
2018-07-16T15:08:33.580Z,32.01
2018-07-16T15:11:01.387Z,31.86
2018-07-16T15:13:29.221Z,31.86
2018-07-16T15:15:57.047Z,31.89
2018-07-16T15:18:24.868Z,31.87
2018-07-16T15:20:52.897Z,31.88
2018-07-16T15:23:23.631Z,31.67
2018-07-16T15:25:52.160Z,31.67
2018-07-16T15:28:20.928Z,31.73
2018-07-16T15:30:48.711Z,31.61
2018-07-16T15:33:18.217Z,31.75
2018-07-16T15:35:47.237Z,31.56
2018-07-16T15:38:15.347Z,31.58
2018-07-16T15:40:43.753Z,31.51
2018-07-16T15:43:11.508Z,31.43
2018-07-16T15:45:39.385Z,31.40
2018-07-16T15:48:07.168Z,31.55
2018-07-16T15:50:34.852Z,31.46
2018-07-16T15:53:05.498Z,31.23
2018-07-16T15:55:33.825Z,31.33
2018-07-16T15:58:06.070Z,31.33
2018-07-16T16:00:33.940Z,31.22
2018-07-16T16:03:04.805Z,31.08
2018-07-16T16:05:33.349Z,30.86
2018-07-16T16:08:01.252Z,30.99
2018-07-16T16:10:33.823Z,30.83
2018-07-16T16:13:01.683Z,30.69
2018-07-16T16:15:29.392Z,30.73
2018-07-16T16:17:57.251Z,30.65
2018-07-16T16:20:25.119Z,30.60
2018-07-16T16:22:52.920Z,30.66
2018-07-16T16:25:20.787Z,30.68
2018-07-16T16:27:48.619Z,30.58
2018-07-16T16:30:16.392Z,30.60
2018-07-16T16:32:44.307Z,30.59
2018-07-16T16:35:12.051Z,30.40
2018-07-16T16:37:39.935Z,30.46
2018-07-16T16:40:07.771Z,30.71
2018-07-16T16:42:35.612Z,30.74
2018-07-16T16:45:03.431Z,30.87
2018-07-16T16:47:31.185Z,31.04
2018-07-16T16:49:59.031Z,31.16
2018-07-16T16:52:26.815Z,31.20
2018-07-16T16:54:54.619Z,31.33
2018-07-16T16:57:22.375Z,31.41
2018-07-16T16:59:50.183Z,31.55
2018-07-16T17:02:17.979Z,31.63
2018-07-16T17:04:45.748Z,31.68
2018-07-16T17:07:13.697Z,31.67
2018-07-16T17:09:43.079Z,31.66
2018-07-16T17:12:11.859Z,31.64
2018-07-16T17:14:39.739Z,31.57
2018-07-16T17:17:07.511Z,31.45
2018-07-16T17:19:35.279Z,31.38
2018-07-16T17:22:03.267Z,31.25
2018-07-16T17:24:32.489Z,31.14
2018-07-16T17:27:00.376Z,31.21
2018-07-16T17:29:31.839Z,30.99
2018-07-16T17:31:59.660Z,30.84
2018-07-16T17:34:27.435Z,31.01
2018-07-16T17:36:55.200Z,30.90
2018-07-16T17:39:22.983Z,30.88
2018-07-16T17:41:50.731Z,30.86
2018-07-16T17:44:18.532Z,30.88
2018-07-16T17:46:46.368Z,30.83
2018-07-16T17:49:14.257Z,30.80
2018-07-16T17:51:42.246Z,30.78
2018-07-16T17:54:10.307Z,30.78
2018-07-16T17:56:38.405Z,30.73
2018-07-16T17:59:07.556Z,30.53
2018-07-16T18:01:35.587Z,30.41
2018-07-16T18:04:03.455Z,30.28
2018-07-16T18:06:31.359Z,30.17
2018-07-16T18:08:59.139Z,30.05
2018-07-16T18:11:27.064Z,29.91
2018-07-16T18:13:55.048Z,29.84
2018-07-16T18:16:22.824Z,29.70
2018-07-16T18:18:50.565Z,29.56
2018-07-16T18:21:18.336Z,29.40
2018-07-16T18:23:47.679Z,29.22
2018-07-16T18:26:15.622Z,29.10
2018-07-16T18:28:43.366Z,28.99
2018-07-16T18:31:11.207Z,28.92
2018-07-16T18:33:39.031Z,28.77
2018-07-16T18:36:06.928Z,28.62
2018-07-16T18:38:34.865Z,28.52
2018-07-16T18:41:02.904Z,28.28
2018-07-16T18:43:30.787Z,28.13
2018-07-16T18:46:04.267Z,27.99
2018-07-16T18:48:37.134Z,27.90
2018-07-16T18:51:06.432Z,27.86
2018-07-16T18:53:39.363Z,27.60
2018-07-16T18:56:07.196Z,27.41
2018-07-16T18:58:34.967Z,27.25
2018-07-16T19:01:02.986Z,27.16
2018-07-16T19:03:30.934Z,27.02
2018-07-16T19:05:58.735Z,26.85
2018-07-16T19:08:26.645Z,26.80
2018-07-16T19:10:54.383Z,26.62
2018-07-16T19:13:22.357Z,26.49
2018-07-16T19:15:50.075Z,26.42
2018-07-16T19:18:17.927Z,26.29
2018-07-16T19:20:49.717Z,26.08
2018-07-16T19:23:23.631Z,25.94
2018-07-16T19:25:59.728Z,25.84
2018-07-16T19:28:32.983Z,25.76
2018-07-16T19:31:09.261Z,25.62
2018-07-16T19:33:40.914Z,25.48
2018-07-16T19:36:09.241Z,25.37
2018-07-16T19:38:41.492Z,25.13
2018-07-16T19:41:09.430Z,25.05
2018-07-16T19:43:37.697Z,25.01
2018-07-16T19:46:05.483Z,24.97
2018-07-16T19:48:33.387Z,24.87
2018-07-16T19:51:01.538Z,24.83
2018-07-16T19:53:29.359Z,24.72
2018-07-16T19:55:58.756Z,24.60
2018-07-16T19:58:26.620Z,24.45
2018-07-16T20:00:54.446Z,24.42
2018-07-16T20:03:22.295Z,24.17
2018-07-16T20:05:50.109Z,24.08
2018-07-16T20:08:18.701Z,23.93
2018-07-16T20:10:46.599Z,24.10
2018-07-16T20:13:14.792Z,23.97
2018-07-16T20:15:42.798Z,23.89
2018-07-16T20:18:12.928Z,23.72
2018-07-16T20:20:54.305Z,23.50
2018-07-16T20:23:22.211Z,23.47
2018-07-16T20:25:53.980Z,23.35
2018-07-16T20:28:21.954Z,23.34
2018-07-16T20:30:50.264Z,23.32
2018-07-16T20:33:18.323Z,23.40
2018-07-16T20:35:46.552Z,22.96
2018-07-16T20:38:19.212Z,22.90
2018-07-16T20:40:48.414Z,22.88
2018-07-16T20:43:16.355Z,22.83
2018-07-16T20:45:51.564Z,22.68
2018-07-16T20:48:20.056Z,22.71
2018-07-16T20:50:47.900Z,22.82
2018-07-16T20:53:15.707Z,22.85
2018-07-16T20:55:43.514Z,22.83
2018-07-16T20:58:16.186Z,22.74
2018-07-16T21:00:43.967Z,22.76
2018-07-16T21:03:11.836Z,22.84
2018-07-16T21:05:39.583Z,22.70
2018-07-16T21:08:07.359Z,22.73
2018-07-16T21:10:38.011Z,22.66
2018-07-16T21:13:05.798Z,22.42
2018-07-16T21:15:36.333Z,22.35
2018-07-16T21:18:18.192Z,22.37
2018-07-16T21:20:48.185Z,22.42
2018-07-16T21:23:16.037Z,22.16
2018-07-16T21:25:43.879Z,21.91
2018-07-16T21:28:11.647Z,21.79
2018-07-16T21:30:41.699Z,21.79
2018-07-16T21:33:09.539Z,21.71
2018-07-16T21:35:40.262Z,21.64
2018-07-16T21:38:09.611Z,21.59
2018-07-16T21:40:37.518Z,21.43
2018-07-16T21:43:05.551Z,21.40
2018-07-16T21:45:33.500Z,21.37
2018-07-16T21:48:02.021Z,21.39
2018-07-16T21:50:30.835Z,21.33
2018-07-16T21:52:58.636Z,21.21
2018-07-16T21:55:29.653Z,21.25
2018-07-16T21:58:03.384Z,21.20
2018-07-16T22:00:32.370Z,21.26
2018-07-16T22:03:02.992Z,21.31
2018-07-16T22:05:30.799Z,21.16
2018-07-16T22:07:59.465Z,21.26
2018-07-16T22:12:56.095Z,21.03
2018-07-16T22:15:27.872Z,21.15
2018-07-16T22:17:58.075Z,21.14
2018-07-16T22:20:32.901Z,20.99
2018-07-16T22:23:00.839Z,20.81
2018-07-16T22:25:28.881Z,20.95
2018-07-16T22:28:03.317Z,20.86
2018-07-16T22:30:31.882Z,21.00
2018-07-16T22:32:59.707Z,20.88
2018-07-16T22:35:30.360Z,21.02
2018-07-16T22:37:58.906Z,20.91
2018-07-16T22:40:31.127Z,20.82
2018-07-16T22:43:12.934Z,20.89
2018-07-16T22:45:46.392Z,20.77
2018-07-16T22:48:14.184Z,20.68
2018-07-16T22:50:42.012Z,20.54
2018-07-16T22:53:10.876Z,20.55
2018-07-16T22:55:38.755Z,20.53
2018-07-16T22:58:07.086Z,20.45
2018-07-16T23:00:34.971Z,20.21
2018-07-16T23:03:02.912Z,20.06
2018-07-16T23:05:31.366Z,20.15
2018-07-16T23:07:59.467Z,20.06
2018-07-16T23:10:27.389Z,20.00
2018-07-16T23:12:55.186Z,19.81
2018-07-16T23:15:23.083Z,19.83
2018-07-16T23:17:54.680Z,19.95
2018-07-16T23:20:22.552Z,20.02
2018-07-16T23:22:56.195Z,20.00
2018-07-16T23:25:24.148Z,19.87
2018-07-16T23:27:52.194Z,19.88
2018-07-16T23:30:20.021Z,19.75
2018-07-16T23:32:57.762Z,19.83
2018-07-16T23:35:25.678Z,19.84
2018-07-16T23:37:53.468Z,19.59
2018-07-16T23:40:31.934Z,19.46
2018-07-16T23:43:02.006Z,19.44
2018-07-16T23:45:30.125Z,19.40
2018-07-16T23:47:59.431Z,19.33
2018-07-16T23:50:27.421Z,19.29
2018-07-16T23:52:55.228Z,19.26
2018-07-16T23:55:23.080Z,19.17
2018-07-16T23:57:56.417Z,19.07
